sensor_id;sensor_type;location;lat;lon;timestamp;P1;durP1;ratioP1;P2;durP2;ratioP2
67737;SDS011;54534;43.612;1.572;2022-11-20T00:01:34;15.10;;;3.17;;
67737;SDS011;54534;43.612;1.572;2022-11-20T00:03:59;12.63;;;2.70;;
67737;SDS011;54534;43.612;1.572;2022-11-20T00:06:25;11.10;;;2.73;;
67737;SDS011;54534;43.612;1.572;2022-11-20T00:08:54;9.60;;;2.33;;
67737;SDS011;54534;43.612;1.572;2022-11-20T00:11:23;12.07;;;2.63;;
67737;SDS011;54534;43.612;1.572;2022-11-20T00:13:51;11.10;;;2.33;;
67737;SDS011;54534;43.612;1.572;2022-11-20T00:16:19;5.90;;;2.17;;
67737;SDS011;54534;43.612;1.572;2022-11-20T00:18:47;9.63;;;2.08;;
67737;SDS011;54534;43.612;1.572;2022-11-20T00:21:16;11.10;;;2.20;;
67737;SDS011;54534;43.612;1.572;2022-11-20T00:23:44;10.67;;;2.00;;
67737;SDS011;54534;43.612;1.572;2022-11-20T00:26:11;8.20;;;2.07;;
67737;SDS011;54534;43.612;1.572;2022-11-20T00:28:39;5.90;;;1.90;;
67737;SDS011;54534;43.612;1.572;2022-11-20T00:31:09;4.30;;;1.90;;
67737;SDS011;54534;43.612;1.572;2022-11-20T00:33:36;10.20;;;2.20;;
67737;SDS011;54534;43.612;1.572;2022-11-20T00:36:05;7.03;;;1.80;;
67737;SDS011;54534;43.612;1.572;2022-11-20T00:38:35;4.70;;;1.97;;
67737;SDS011;54534;43.612;1.572;2022-11-20T00:41:02;7.10;;;1.90;;
67737;SDS011;54534;43.612;1.572;2022-11-20T00:43:33;23.67;;;2.43;;
67737;SDS011;54534;43.612;1.572;2022-11-20T00:48:24;4.00;;;2.03;;
67737;SDS011;54534;43.612;1.572;2022-11-20T00:50:50;4.27;;;1.90;;
67737;SDS011;54534;43.612;1.572;2022-11-20T00:53:16;6.27;;;2.27;;
67737;SDS011;54534;43.612;1.572;2022-11-20T00:55:41;4.03;;;1.57;;
67737;SDS011;54534;43.612;1.572;2022-11-20T00:58:06;1.93;;;1.27;;
67737;SDS011;54534;43.612;1.572;2022-11-20T01:00:32;2.60;;;1.40;;
67737;SDS011;54534;43.612;1.572;2022-11-20T01:02:57;7.10;;;1.80;;
67737;SDS011;54534;43.612;1.572;2022-11-20T01:05:22;2.00;;;1.43;;
67737;SDS011;54534;43.612;1.572;2022-11-20T01:07:48;2.30;;;1.57;;
67737;SDS011;54534;43.612;1.572;2022-11-20T01:10:13;3.10;;;1.60;;
67737;SDS011;54534;43.612;1.572;2022-11-20T01:12:39;1.57;;;1.47;;
67737;SDS011;54534;43.612;1.572;2022-11-20T01:15:04;2.67;;;1.60;;
67737;SDS011;54534;43.612;1.572;2022-11-20T01:17:30;2.57;;;1.70;;
67737;SDS011;54534;43.612;1.572;2022-11-20T01:19:56;2.17;;;1.50;;
67737;SDS011;54534;43.612;1.572;2022-11-20T01:22:22;3.13;;;1.60;;
67737;SDS011;54534;43.612;1.572;2022-11-20T01:24:47;5.77;;;1.60;;
67737;SDS011;54534;43.612;1.572;2022-11-20T01:27:13;3.03;;;1.50;;
67737;SDS011;54534;43.612;1.572;2022-11-20T01:29:38;3.27;;;1.47;;
67737;SDS011;54534;43.612;1.572;2022-11-20T01:32:04;2.43;;;1.73;;
67737;SDS011;54534;43.612;1.572;2022-11-20T01:34:29;1.50;;;1.30;;
67737;SDS011;54534;43.612;1.572;2022-11-20T01:36:54;4.83;;;1.33;;
67737;SDS011;54534;43.612;1.572;2022-11-20T01:39:21;1.47;;;1.33;;
67737;SDS011;54534;43.612;1.572;2022-11-20T01:41:49;1.50;;;1.27;;
67737;SDS011;54534;43.612;1.572;2022-11-20T01:44:43;3.13;;;1.30;;
67737;SDS011;54534;43.612;1.572;2022-11-20T01:47:11;1.70;;;1.30;;
67737;SDS011;54534;43.612;1.572;2022-11-20T01:49:42;3.73;;;2.00;;
67737;SDS011;54534;43.612;1.572;2022-11-20T01:52:23;1.40;;;1.10;;
67737;SDS011;54534;43.612;1.572;2022-11-20T01:55:10;3.33;;;1.67;;
67737;SDS011;54534;43.612;1.572;2022-11-20T01:57:39;2.07;;;1.50;;
67737;SDS011;54534;43.612;1.572;2022-11-20T02:00:10;4.40;;;1.90;;
67737;SDS011;54534;43.612;1.572;2022-11-20T02:02:37;1.43;;;1.27;;
67737;SDS011;54534;43.612;1.572;2022-11-20T02:05:15;3.03;;;1.27;;
67737;SDS011;54534;43.612;1.572;2022-11-20T02:07:47;2.80;;;1.40;;
67737;SDS011;54534;43.612;1.572;2022-11-20T02:10:13;3.00;;;1.30;;
67737;SDS011;54534;43.612;1.572;2022-11-20T02:12:39;2.03;;;1.30;;
67737;SDS011;54534;43.612;1.572;2022-11-20T02:15:23;1.77;;;1.10;;
67737;SDS011;54534;43.612;1.572;2022-11-20T02:17:50;1.97;;;1.40;;
67737;SDS011;54534;43.612;1.572;2022-11-20T02:20:15;1.87;;;1.33;;
67737;SDS011;54534;43.612;1.572;2022-11-20T02:22:43;4.20;;;1.20;;
67737;SDS011;54534;43.612;1.572;2022-11-20T02:25:16;3.27;;;1.30;;
67737;SDS011;54534;43.612;1.572;2022-11-20T02:27:42;1.90;;;1.20;;
67737;SDS011;54534;43.612;1.572;2022-11-20T02:30:08;1.50;;;1.10;;
67737;SDS011;54534;43.612;1.572;2022-11-20T02:32:36;2.23;;;1.13;;
67737;SDS011;54534;43.612;1.572;2022-11-20T02:37:49;3.97;;;1.10;;
67737;SDS011;54534;43.612;1.572;2022-11-20T02:40:17;3.37;;;1.80;;
67737;SDS011;54534;43.612;1.572;2022-11-20T02:42:43;1.80;;;1.10;;
67737;SDS011;54534;43.612;1.572;2022-11-20T02:45:09;2.50;;;1.00;;
67737;SDS011;54534;43.612;1.572;2022-11-20T02:47:34;1.20;;;1.10;;
67737;SDS011;54534;43.612;1.572;2022-11-20T02:50:00;3.07;;;1.30;;
67737;SDS011;54534;43.612;1.572;2022-11-20T02:52:25;1.80;;;1.30;;
67737;SDS011;54534;43.612;1.572;2022-11-20T02:54:51;1.30;;;0.90;;
67737;SDS011;54534;43.612;1.572;2022-11-20T02:57:16;2.20;;;1.10;;
67737;SDS011;54534;43.612;1.572;2022-11-20T02:59:42;1.83;;;1.20;;
67737;SDS011;54534;43.612;1.572;2022-11-20T03:02:07;1.30;;;1.00;;
67737;SDS011;54534;43.612;1.572;2022-11-20T03:04:32;1.93;;;1.00;;
67737;SDS011;54534;43.612;1.572;2022-11-20T03:06:58;1.10;;;0.80;;
67737;SDS011;54534;43.612;1.572;2022-11-20T03:09:23;2.63;;;1.63;;
67737;SDS011;54534;43.612;1.572;2022-11-20T03:11:49;1.10;;;0.80;;
67737;SDS011;54534;43.612;1.572;2022-11-20T03:14:14;1.00;;;0.90;;
67737;SDS011;54534;43.612;1.572;2022-11-20T03:16:40;0.90;;;0.83;;
67737;SDS011;54534;43.612;1.572;2022-11-20T03:19:05;1.30;;;0.90;;
67737;SDS011;54534;43.612;1.572;2022-11-20T03:21:32;1.53;;;1.00;;
67737;SDS011;54534;43.612;1.572;2022-11-20T03:23:58;1.30;;;1.10;;
67737;SDS011;54534;43.612;1.572;2022-11-20T03:26:25;1.20;;;1.10;;
67737;SDS011;54534;43.612;1.572;2022-11-20T03:28:52;1.87;;;0.83;;
67737;SDS011;54534;43.612;1.572;2022-11-20T03:31:20;1.13;;;0.93;;
67737;SDS011;54534;43.612;1.572;2022-11-20T03:33:48;1.13;;;0.90;;
67737;SDS011;54534;43.612;1.572;2022-11-20T03:36:14;1.07;;;0.97;;
67737;SDS011;54534;43.612;1.572;2022-11-20T03:38:41;1.20;;;1.00;;
67737;SDS011;54534;43.612;1.572;2022-11-20T03:41:08;3.03;;;0.80;;
67737;SDS011;54534;43.612;1.572;2022-11-20T03:43:41;1.20;;;0.90;;
67737;SDS011;54534;43.612;1.572;2022-11-20T03:46:06;1.67;;;0.90;;
67737;SDS011;54534;43.612;1.572;2022-11-20T03:48:32;2.40;;;0.90;;
67737;SDS011;54534;43.612;1.572;2022-11-20T03:53:39;1.67;;;0.77;;
67737;SDS011;54534;43.612;1.572;2022-11-20T03:56:06;1.10;;;1.00;;
67737;SDS011;54534;43.612;1.572;2022-11-20T03:58:32;1.17;;;0.70;;
67737;SDS011;54534;43.612;1.572;2022-11-20T04:01:03;1.43;;;0.90;;
67737;SDS011;54534;43.612;1.572;2022-11-20T04:03:30;0.70;;;0.60;;
67737;SDS011;54534;43.612;1.572;2022-11-20T04:06:00;1.40;;;0.90;;
67737;SDS011;54534;43.612;1.572;2022-11-20T04:08:30;1.10;;;1.00;;
67737;SDS011;54534;43.612;1.572;2022-11-20T04:10:56;0.93;;;0.90;;
67737;SDS011;54534;43.612;1.572;2022-11-20T04:13:21;1.10;;;0.80;;
67737;SDS011;54534;43.612;1.572;2022-11-20T04:15:47;1.37;;;0.80;;
67737;SDS011;54534;43.612;1.572;2022-11-20T04:18:12;0.70;;;0.70;;
67737;SDS011;54534;43.612;1.572;2022-11-20T04:20:37;0.90;;;0.80;;
67737;SDS011;54534;43.612;1.572;2022-11-20T04:23:03;4.43;;;0.80;;
67737;SDS011;54534;43.612;1.572;2022-11-20T04:25:28;0.70;;;0.70;;
67737;SDS011;54534;43.612;1.572;2022-11-20T04:27:54;0.90;;;0.90;;
67737;SDS011;54534;43.612;1.572;2022-11-20T04:30:19;0.93;;;0.80;;
67737;SDS011;54534;43.612;1.572;2022-11-20T04:32:45;2.20;;;0.90;;
67737;SDS011;54534;43.612;1.572;2022-11-20T04:35:10;1.00;;;0.70;;
67737;SDS011;54534;43.612;1.572;2022-11-20T04:37:35;0.87;;;0.87;;
67737;SDS011;54534;43.612;1.572;2022-11-20T04:40:01;0.90;;;0.90;;
67737;SDS011;54534;43.612;1.572;2022-11-20T04:42:26;1.00;;;0.87;;
67737;SDS011;54534;43.612;1.572;2022-11-20T04:44:54;0.83;;;0.80;;
67737;SDS011;54534;43.612;1.572;2022-11-20T04:47:20;1.17;;;0.83;;
67737;SDS011;54534;43.612;1.572;2022-11-20T04:49:46;1.20;;;0.73;;
67737;SDS011;54534;43.612;1.572;2022-11-20T04:52:12;1.23;;;0.80;;
67737;SDS011;54534;43.612;1.572;2022-11-20T04:54:37;0.80;;;0.80;;
67737;SDS011;54534;43.612;1.572;2022-11-20T04:57:02;1.77;;;0.90;;
67737;SDS011;54534;43.612;1.572;2022-11-20T04:59:28;0.63;;;0.63;;
67737;SDS011;54534;43.612;1.572;2022-11-20T05:01:53;0.60;;;0.60;;
67737;SDS011;54534;43.612;1.572;2022-11-20T05:04:19;0.90;;;0.87;;
67737;SDS011;54534;43.612;1.572;2022-11-20T05:06:44;1.17;;;0.90;;
67737;SDS011;54534;43.612;1.572;2022-11-20T05:09:10;0.80;;;0.80;;
67737;SDS011;54534;43.612;1.572;2022-11-20T05:11:36;1.10;;;0.70;;
67737;SDS011;54534;43.612;1.572;2022-11-20T05:14:02;1.10;;;0.67;;
67737;SDS011;54534;43.612;1.572;2022-11-20T05:16:27;2.60;;;0.97;;
67737;SDS011;54534;43.612;1.572;2022-11-20T05:18:54;0.60;;;0.60;;
67737;SDS011;54534;43.612;1.572;2022-11-20T05:21:20;0.80;;;0.70;;
67737;SDS011;54534;43.612;1.572;2022-11-20T05:23:46;1.57;;;0.90;;
67737;SDS011;54534;43.612;1.572;2022-11-20T05:26:13;1.37;;;0.90;;
67737;SDS011;54534;43.612;1.572;2022-11-20T05:28:40;1.20;;;0.80;;
67737;SDS011;54534;43.612;1.572;2022-11-20T05:31:10;0.70;;;0.70;;
67737;SDS011;54534;43.612;1.572;2022-11-20T05:33:40;1.70;;;0.77;;
67737;SDS011;54534;43.612;1.572;2022-11-20T05:36:07;1.37;;;0.90;;
67737;SDS011;54534;43.612;1.572;2022-11-20T05:38:33;1.00;;;0.90;;
67737;SDS011;54534;43.612;1.572;2022-11-20T05:43:41;0.70;;;0.60;;
67737;SDS011;54534;43.612;1.572;2022-11-20T05:46:09;1.43;;;0.93;;
67737;SDS011;54534;43.612;1.572;2022-11-20T05:48:36;0.87;;;0.80;;
67737;SDS011;54534;43.612;1.572;2022-11-20T05:51:03;0.70;;;0.70;;
67737;SDS011;54534;43.612;1.572;2022-11-20T05:53:31;1.63;;;0.90;;
67737;SDS011;54534;43.612;1.572;2022-11-20T05:55:58;0.97;;;0.87;;
67737;SDS011;54534;43.612;1.572;2022-11-20T05:58:27;2.20;;;0.80;;
67737;SDS011;54534;43.612;1.572;2022-11-20T06:00:53;0.70;;;0.70;;
67737;SDS011;54534;43.612;1.572;2022-11-20T06:03:19;0.90;;;0.90;;
67737;SDS011;54534;43.612;1.572;2022-11-20T06:05:44;1.60;;;0.77;;
67737;SDS011;54534;43.612;1.572;2022-11-20T06:08:10;1.13;;;0.77;;
67737;SDS011;54534;43.612;1.572;2022-11-20T06:10:35;1.23;;;0.70;;
67737;SDS011;54534;43.612;1.572;2022-11-20T06:13:01;0.83;;;0.67;;
67737;SDS011;54534;43.612;1.572;2022-11-20T06:15:26;0.80;;;0.80;;
67737;SDS011;54534;43.612;1.572;2022-11-20T06:17:52;1.00;;;0.90;;
67737;SDS011;54534;43.612;1.572;2022-11-20T06:20:18;0.70;;;0.70;;
67737;SDS011;54534;43.612;1.572;2022-11-20T06:22:44;1.47;;;1.00;;
67737;SDS011;54534;43.612;1.572;2022-11-20T06:25:10;1.20;;;0.70;;
67737;SDS011;54534;43.612;1.572;2022-11-20T06:27:35;1.03;;;0.90;;
67737;SDS011;54534;43.612;1.572;2022-11-20T06:30:00;1.20;;;0.90;;
67737;SDS011;54534;43.612;1.572;2022-11-20T06:32:26;1.23;;;0.80;;
67737;SDS011;54534;43.612;1.572;2022-11-20T06:34:51;0.80;;;0.80;;
67737;SDS011;54534;43.612;1.572;2022-11-20T06:37:16;0.90;;;0.70;;
67737;SDS011;54534;43.612;1.572;2022-11-20T06:39:42;1.27;;;1.03;;
67737;SDS011;54534;43.612;1.572;2022-11-20T06:42:07;2.70;;;0.87;;
67737;SDS011;54534;43.612;1.572;2022-11-20T06:44:33;1.47;;;1.30;;
67737;SDS011;54534;43.612;1.572;2022-11-20T06:46:58;0.80;;;0.80;;
67737;SDS011;54534;43.612;1.572;2022-11-20T06:49:24;0.97;;;0.97;;
67737;SDS011;54534;43.612;1.572;2022-11-20T06:51:50;4.27;;;1.33;;
67737;SDS011;54534;43.612;1.572;2022-11-20T06:54:15;0.80;;;0.80;;
67737;SDS011;54534;43.612;1.572;2022-11-20T06:56:40;0.60;;;0.60;;
67737;SDS011;54534;43.612;1.572;2022-11-20T06:59:06;0.63;;;0.63;;
67737;SDS011;54534;43.612;1.572;2022-11-20T07:01:32;2.30;;;0.57;;
67737;SDS011;54534;43.612;1.572;2022-11-20T07:03:58;0.70;;;0.70;;
67737;SDS011;54534;43.612;1.572;2022-11-20T07:06:23;0.80;;;0.63;;
67737;SDS011;54534;43.612;1.572;2022-11-20T07:08:50;1.20;;;0.77;;
67737;SDS011;54534;43.612;1.572;2022-11-20T07:11:17;0.60;;;0.60;;
67737;SDS011;54534;43.612;1.572;2022-11-20T07:13:42;0.90;;;0.70;;
67737;SDS011;54534;43.612;1.572;2022-11-20T07:16:08;0.70;;;0.70;;
67737;SDS011;54534;43.612;1.572;2022-11-20T07:18:34;1.20;;;0.87;;
67737;SDS011;54534;43.612;1.572;2022-11-20T07:21:03;2.37;;;0.83;;
67737;SDS011;54534;43.612;1.572;2022-11-20T07:23:31;1.30;;;0.93;;
67737;SDS011;54534;43.612;1.572;2022-11-20T07:25:57;0.70;;;0.70;;
67737;SDS011;54534;43.612;1.572;2022-11-20T07:28:23;0.70;;;0.70;;
67737;SDS011;54534;43.612;1.572;2022-11-20T07:30:51;0.70;;;0.70;;
67737;SDS011;54534;43.612;1.572;2022-11-20T07:33:18;0.50;;;0.50;;
67737;SDS011;54534;43.612;1.572;2022-11-20T07:35:44;0.90;;;0.80;;
67737;SDS011;54534;43.612;1.572;2022-11-20T07:38:10;21.97;;;2.27;;
67737;SDS011;54534;43.612;1.572;2022-11-20T07:40:35;31.03;;;2.03;;
67737;SDS011;54534;43.612;1.572;2022-11-20T07:43:00;18.87;;;1.53;;
67737;SDS011;54534;43.612;1.572;2022-11-20T07:45:26;3.13;;;1.10;;
67737;SDS011;54534;43.612;1.572;2022-11-20T07:47:51;10.27;;;1.00;;
67737;SDS011;54534;43.612;1.572;2022-11-20T07:50:17;2.40;;;0.87;;
67737;SDS011;54534;43.612;1.572;2022-11-20T07:52:43;3.47;;;0.87;;
67737;SDS011;54534;43.612;1.572;2022-11-20T07:55:09;20.50;;;1.87;;
67737;SDS011;54534;43.612;1.572;2022-11-20T07:57:35;5.17;;;0.90;;
67737;SDS011;54534;43.612;1.572;2022-11-20T08:00:00;8.60;;;1.00;;
67737;SDS011;54534;43.612;1.572;2022-11-20T08:02:26;3.40;;;1.10;;
67737;SDS011;54534;43.612;1.572;2022-11-20T08:04:52;2.03;;;0.87;;
67737;SDS011;54534;43.612;1.572;2022-11-20T08:07:17;3.20;;;1.10;;
67737;SDS011;54534;43.612;1.572;2022-11-20T08:09:42;2.87;;;1.10;;
67737;SDS011;54534;43.612;1.572;2022-11-20T08:12:08;2.03;;;0.80;;
67737;SDS011;54534;43.612;1.572;2022-11-20T08:15:00;1.53;;;0.90;;
67737;SDS011;54534;43.612;1.572;2022-11-20T08:17:25;3.40;;;1.57;;
67737;SDS011;54534;43.612;1.572;2022-11-20T08:19:51;1.30;;;0.80;;
67737;SDS011;54534;43.612;1.572;2022-11-20T08:22:16;0.80;;;0.80;;
67737;SDS011;54534;43.612;1.572;2022-11-20T08:24:42;1.87;;;0.97;;
67737;SDS011;54534;43.612;1.572;2022-11-20T08:27:08;8.47;;;1.10;;
67737;SDS011;54534;43.612;1.572;2022-11-20T08:29:33;3.40;;;1.10;;
67737;SDS011;54534;43.612;1.572;2022-11-20T08:31:58;7.40;;;1.00;;
67737;SDS011;54534;43.612;1.572;2022-11-20T08:34:24;23.03;;;1.70;;
67737;SDS011;54534;43.612;1.572;2022-11-20T08:36:49;8.60;;;1.37;;
67737;SDS011;54534;43.612;1.572;2022-11-20T08:39:15;3.57;;;1.00;;
67737;SDS011;54534;43.612;1.572;2022-11-20T08:41:40;7.47;;;1.27;;
67737;SDS011;54534;43.612;1.572;2022-11-20T08:44:06;7.53;;;1.10;;
67737;SDS011;54534;43.612;1.572;2022-11-20T08:46:33;5.33;;;1.00;;
67737;SDS011;54534;43.612;1.572;2022-11-20T08:49:04;2.17;;;0.90;;
67737;SDS011;54534;43.612;1.572;2022-11-20T08:51:31;2.73;;;0.90;;
67737;SDS011;54534;43.612;1.572;2022-11-20T08:53:57;1.47;;;1.03;;
67737;SDS011;54534;43.612;1.572;2022-11-20T08:56:22;1.40;;;1.00;;
67737;SDS011;54534;43.612;1.572;2022-11-20T08:58:49;4.63;;;1.27;;
67737;SDS011;54534;43.612;1.572;2022-11-20T09:01:16;2.77;;;1.00;;
67737;SDS011;54534;43.612;1.572;2022-11-20T09:03:41;3.27;;;0.83;;
67737;SDS011;54534;43.612;1.572;2022-11-20T09:06:07;1.43;;;0.90;;
67737;SDS011;54534;43.612;1.572;2022-11-20T09:08:33;4.17;;;1.40;;
67737;SDS011;54534;43.612;1.572;2022-11-20T09:10:59;2.47;;;0.90;;
67737;SDS011;54534;43.612;1.572;2022-11-20T09:13:25;5.43;;;1.10;;
67737;SDS011;54534;43.612;1.572;2022-11-20T09:15:56;2.43;;;1.00;;
67737;SDS011;54534;43.612;1.572;2022-11-20T09:18:23;2.27;;;1.00;;
67737;SDS011;54534;43.612;1.572;2022-11-20T09:20:51;1.80;;;1.00;;
67737;SDS011;54534;43.612;1.572;2022-11-20T09:23:20;4.32;;;1.00;;
67737;SDS011;54534;43.612;1.572;2022-11-20T09:25:46;2.83;;;1.10;;
67737;SDS011;54534;43.612;1.572;2022-11-20T09:28:11;3.13;;;1.30;;
67737;SDS011;54534;43.612;1.572;2022-11-20T09:30:37;7.87;;;1.47;;
67737;SDS011;54534;43.612;1.572;2022-11-20T09:33:03;13.90;;;2.03;;
67737;SDS011;54534;43.612;1.572;2022-11-20T09:35:29;8.87;;;1.60;;
67737;SDS011;54534;43.612;1.572;2022-11-20T09:37:55;9.57;;;1.00;;
67737;SDS011;54534;43.612;1.572;2022-11-20T09:40:22;7.10;;;1.23;;
67737;SDS011;54534;43.612;1.572;2022-11-20T09:42:57;6.83;;;1.67;;
67737;SDS011;54534;43.612;1.572;2022-11-20T09:45:41;4.63;;;1.13;;
67737;SDS011;54534;43.612;1.572;2022-11-20T09:56:11;6.63;;;1.03;;
67737;SDS011;54534;43.612;1.572;2022-11-20T09:58:45;3.83;;;1.40;;
67737;SDS011;54534;43.612;1.572;2022-11-20T10:03:54;11.90;;;1.30;;
67737;SDS011;54534;43.612;1.572;2022-11-20T10:06:47;1.90;;;1.50;;
67737;SDS011;54534;43.612;1.572;2022-11-20T10:09:40;13.30;;;1.43;;
67737;SDS011;54534;43.612;1.572;2022-11-20T10:31:13;7.37;;;1.50;;
67737;SDS011;54534;43.612;1.572;2022-11-20T10:33:49;8.40;;;1.50;;
67737;SDS011;54534;43.612;1.572;2022-11-20T10:36:23;3.55;;;1.63;;
67737;SDS011;54534;43.612;1.572;2022-11-20T10:41:32;5.90;;;1.60;;
67737;SDS011;54534;43.612;1.572;2022-11-20T10:44:09;3.43;;;1.20;;
67737;SDS011;54534;43.612;1.572;2022-11-20T10:46:47;3.67;;;1.33;;
67737;SDS011;54534;43.612;1.572;2022-11-20T10:49:13;8.33;;;2.00;;
67737;SDS011;54534;43.612;1.572;2022-11-20T10:59:59;5.03;;;1.60;;
67737;SDS011;54534;43.612;1.572;2022-11-20T11:02:32;5.97;;;1.33;;
67737;SDS011;54534;43.612;1.572;2022-11-20T11:05:04;2.67;;;1.07;;
67737;SDS011;54534;43.612;1.572;2022-11-20T11:07:38;3.30;;;1.10;;
67737;SDS011;54534;43.612;1.572;2022-11-20T11:10:39;6.20;;;2.30;;
67737;SDS011;54534;43.612;1.572;2022-11-20T11:13:27;1.47;;;1.07;;
67737;SDS011;54534;43.612;1.572;2022-11-20T11:15:54;1.30;;;1.00;;
67737;SDS011;54534;43.612;1.572;2022-11-20T11:18:26;5.57;;;1.17;;
67737;SDS011;54534;43.612;1.572;2022-11-20T11:20:53;3.30;;;1.30;;
67737;SDS011;54534;43.612;1.572;2022-11-20T11:25:58;4.10;;;1.00;;
67737;SDS011;54534;43.612;1.572;2022-11-20T11:28:25;6.50;;;1.70;;
67737;SDS011;54534;43.612;1.572;2022-11-20T11:30:52;4.00;;;0.93;;
67737;SDS011;54534;43.612;1.572;2022-11-20T11:33:22;2.80;;;1.03;;
67737;SDS011;54534;43.612;1.572;2022-11-20T11:41:30;4.27;;;0.97;;
67737;SDS011;54534;43.612;1.572;2022-11-20T11:44:00;1.33;;;1.13;;
67737;SDS011;54534;43.612;1.572;2022-11-20T11:46:57;1.47;;;0.83;;
67737;SDS011;54534;43.612;1.572;2022-11-20T11:49:23;4.53;;;1.40;;
67737;SDS011;54534;43.612;1.572;2022-11-20T11:54:28;1.80;;;1.07;;
67737;SDS011;54534;43.612;1.572;2022-11-20T11:57:00;4.60;;;1.30;;
67737;SDS011;54534;43.612;1.572;2022-11-20T12:00:13;0.93;;;0.93;;
67737;SDS011;54534;43.612;1.572;2022-11-20T12:05:20;3.43;;;2.10;;
67737;SDS011;54534;43.612;1.572;2022-11-20T12:07:59;3.03;;;1.27;;
67737;SDS011;54534;43.612;1.572;2022-11-20T12:10:48;3.73;;;1.47;;
67737;SDS011;54534;43.612;1.572;2022-11-20T12:16:14;2.50;;;1.20;;
67737;SDS011;54534;43.612;1.572;2022-11-20T12:18:41;4.03;;;1.50;;
67737;SDS011;54534;43.612;1.572;2022-11-20T12:21:23;2.70;;;1.20;;
67737;SDS011;54534;43.612;1.572;2022-11-20T12:37:30;3.43;;;1.00;;
67737;SDS011;54534;43.612;1.572;2022-11-20T12:40:17;1.67;;;1.10;;
67737;SDS011;54534;43.612;1.572;2022-11-20T12:56:38;2.40;;;1.20;;
67737;SDS011;54534;43.612;1.572;2022-11-20T13:02:29;4.00;;;1.50;;
67737;SDS011;54534;43.612;1.572;2022-11-20T13:07:26;43.40;;;7.83;;
67737;SDS011;54534;43.612;1.572;2022-11-20T13:09:53;38.97;;;8.10;;
67737;SDS011;54534;43.612;1.572;2022-11-20T13:14:52;25.93;;;5.47;;
67737;SDS011;54534;43.612;1.572;2022-11-20T13:20:15;30.47;;;6.27;;
67737;SDS011;54534;43.612;1.572;2022-11-20T13:27:52;14.82;;;4.15;;
67737;SDS011;54534;43.612;1.572;2022-11-20T13:30:22;18.37;;;3.83;;
67737;SDS011;54534;43.612;1.572;2022-11-20T13:38:02;12.77;;;3.40;;
67737;SDS011;54534;43.612;1.572;2022-11-20T13:40:28;13.77;;;2.87;;
67737;SDS011;54534;43.612;1.572;2022-11-20T13:45:23;7.60;;;2.37;;
67737;SDS011;54534;43.612;1.572;2022-11-20T13:47:51;10.83;;;2.97;;
67737;SDS011;54534;43.612;1.572;2022-11-20T13:50:18;7.47;;;2.07;;
67737;SDS011;54534;43.612;1.572;2022-11-20T13:53:06;4.50;;;2.47;;
67737;SDS011;54534;43.612;1.572;2022-11-20T13:55:57;6.40;;;2.30;;
67737;SDS011;54534;43.612;1.572;2022-11-20T14:01:10;9.93;;;2.37;;
67737;SDS011;54534;43.612;1.572;2022-11-20T14:03:41;4.60;;;2.07;;
67737;SDS011;54534;43.612;1.572;2022-11-20T14:08:53;5.33;;;2.23;;
67737;SDS011;54534;43.612;1.572;2022-11-20T14:11:22;8.77;;;2.13;;
67737;SDS011;54534;43.612;1.572;2022-11-20T14:13:54;3.93;;;2.40;;
67737;SDS011;54534;43.612;1.572;2022-11-20T14:16:38;7.37;;;1.90;;
67737;SDS011;54534;43.612;1.572;2022-11-20T14:22:30;6.27;;;2.50;;
67737;SDS011;54534;43.612;1.572;2022-11-20T14:24:33;7.73;;;3.00;;
67737;SDS011;54534;43.612;1.572;2022-11-20T14:26:58;5.70;;;2.57;;
67737;SDS011;54534;43.612;1.572;2022-11-20T14:29:28;21.83;;;3.17;;
67737;SDS011;54534;43.612;1.572;2022-11-20T14:31:58;26.03;;;3.77;;
67737;SDS011;54534;43.612;1.572;2022-11-20T14:34:24;21.80;;;4.30;;
67737;SDS011;54534;43.612;1.572;2022-11-20T14:36:55;13.57;;;3.97;;
67737;SDS011;54534;43.612;1.572;2022-11-20T14:39:29;9.17;;;2.93;;
67737;SDS011;54534;43.612;1.572;2022-11-20T14:41:58;14.40;;;3.57;;
67737;SDS011;54534;43.612;1.572;2022-11-20T14:44:25;16.23;;;3.90;;
67737;SDS011;54534;43.612;1.572;2022-11-20T14:46:52;14.73;;;3.33;;
67737;SDS011;54534;43.612;1.572;2022-11-20T14:49:20;9.90;;;3.67;;
67737;SDS011;54534;43.612;1.572;2022-11-20T14:51:46;8.60;;;3.17;;
67737;SDS011;54534;43.612;1.572;2022-11-20T14:54:15;9.77;;;3.27;;
67737;SDS011;54534;43.612;1.572;2022-11-20T14:56:53;12.63;;;3.03;;
67737;SDS011;54534;43.612;1.572;2022-11-20T15:01:55;7.82;;;3.05;;
67737;SDS011;54534;43.612;1.572;2022-11-20T15:04:23;7.03;;;2.73;;
67737;SDS011;54534;43.612;1.572;2022-11-20T15:06:49;5.60;;;2.40;;
67737;SDS011;54534;43.612;1.572;2022-11-20T15:09:16;7.10;;;2.20;;
67737;SDS011;54534;43.612;1.572;2022-11-20T15:11:50;9.43;;;3.60;;
67737;SDS011;54534;43.612;1.572;2022-11-20T15:14:19;6.47;;;2.40;;
67737;SDS011;54534;43.612;1.572;2022-11-20T15:16:45;9.97;;;3.10;;
67737;SDS011;54534;43.612;1.572;2022-11-20T15:19:16;9.87;;;5.00;;
67737;SDS011;54534;43.612;1.572;2022-11-20T15:21:45;13.67;;;5.60;;
67737;SDS011;54534;43.612;1.572;2022-11-20T15:24:10;10.30;;;5.20;;
67737;SDS011;54534;43.612;1.572;2022-11-20T15:26:35;14.57;;;5.77;;
67737;SDS011;54534;43.612;1.572;2022-11-20T15:29:02;12.47;;;6.47;;
67737;SDS011;54534;43.612;1.572;2022-11-20T15:31:27;10.87;;;5.20;;
67737;SDS011;54534;43.612;1.572;2022-11-20T15:33:53;18.97;;;5.33;;
67737;SDS011;54534;43.612;1.572;2022-11-20T15:36:18;9.33;;;4.73;;
67737;SDS011;54534;43.612;1.572;2022-11-20T15:38:44;11.53;;;5.27;;
67737;SDS011;54534;43.612;1.572;2022-11-20T15:41:09;8.40;;;4.67;;
67737;SDS011;54534;43.612;1.572;2022-11-20T15:43:35;9.93;;;4.60;;
67737;SDS011;54534;43.612;1.572;2022-11-20T15:46:14;8.50;;;4.87;;
67737;SDS011;54534;43.612;1.572;2022-11-20T15:48:45;8.97;;;4.43;;
67737;SDS011;54534;43.612;1.572;2022-11-20T15:53:55;9.60;;;4.50;;
67737;SDS011;54534;43.612;1.572;2022-11-20T15:56:21;8.63;;;3.93;;
67737;SDS011;54534;43.612;1.572;2022-11-20T15:58:46;7.37;;;3.93;;
67737;SDS011;54534;43.612;1.572;2022-11-20T16:01:13;9.53;;;3.13;;
67737;SDS011;54534;43.612;1.572;2022-11-20T16:03:40;8.23;;;4.07;;
67737;SDS011;54534;43.612;1.572;2022-11-20T16:06:06;7.73;;;3.80;;
67737;SDS011;54534;43.612;1.572;2022-11-20T16:08:32;7.60;;;3.83;;
67737;SDS011;54534;43.612;1.572;2022-11-20T16:10:57;9.57;;;3.57;;
67737;SDS011;54534;43.612;1.572;2022-11-20T16:13:23;8.23;;;4.23;;
67737;SDS011;54534;43.612;1.572;2022-11-20T16:16:08;8.37;;;3.03;;
67737;SDS011;54534;43.612;1.572;2022-11-20T16:18:44;6.60;;;3.20;;
67737;SDS011;54534;43.612;1.572;2022-11-20T16:21:10;5.53;;;3.10;;
67737;SDS011;54534;43.612;1.572;2022-11-20T16:23:38;5.37;;;2.73;;
67737;SDS011;54534;43.612;1.572;2022-11-20T16:26:10;5.30;;;2.70;;
67737;SDS011;54534;43.612;1.572;2022-11-20T16:28:36;7.57;;;3.17;;
67737;SDS011;54534;43.612;1.572;2022-11-20T16:31:17;9.33;;;3.00;;
67737;SDS011;54534;43.612;1.572;2022-11-20T16:33:51;8.77;;;2.93;;
67737;SDS011;54534;43.612;1.572;2022-11-20T16:36:17;4.27;;;2.73;;
67737;SDS011;54534;43.612;1.572;2022-11-20T16:38:43;7.63;;;3.57;;
67737;SDS011;54534;43.612;1.572;2022-11-20T16:41:09;8.63;;;3.30;;
67737;SDS011;54534;43.612;1.572;2022-11-20T16:43:54;7.45;;;2.90;;
67737;SDS011;54534;43.612;1.572;2022-11-20T16:46:30;6.07;;;3.07;;
67737;SDS011;54534;43.612;1.572;2022-11-20T16:48:59;14.87;;;3.57;;
67737;SDS011;54534;43.612;1.572;2022-11-20T16:51:27;4.87;;;2.67;;
67737;SDS011;54534;43.612;1.572;2022-11-20T16:53:54;6.97;;;3.17;;
67737;SDS011;54534;43.612;1.572;2022-11-20T16:56:20;8.93;;;3.07;;
67737;SDS011;54534;43.612;1.572;2022-11-20T16:58:48;5.73;;;3.03;;
67737;SDS011;54534;43.612;1.572;2022-11-20T17:01:16;6.60;;;3.00;;
67737;SDS011;54534;43.612;1.572;2022-11-20T17:03:45;12.80;;;4.20;;
67737;SDS011;54534;43.612;1.572;2022-11-20T17:06:19;8.50;;;3.30;;